Time;durP1;ratioP1;P1;durP2;ratioP2;P2;SDS_P1;SDS_P2;PMS_P1;PMS_P2;Temp;Humidity;BMP_temperature;BMP_pressure;BME280_temperature;BME280_humidity;BME280_pressure;Samples;Min_cycle;Max_cycle;Signal;HPM_P1;HPM_P2
2023/11/20 00:00:59;;;;;;;3.38;1.35;;;10.20;99.90;;;9.38;100.00;98951.84;5012471;28;20064;-77
2023/11/20 00:03:24;;;;;;;2.25;1.13;;;10.20;99.90;;;9.44;100.00;98959.84;5012514;28;20042;-78
2023/11/20 00:05:50;;;;;;;4.22;1.50;;;10.20;99.90;;;9.42;100.00;98953.00;5011117;28;20042;-77
2023/11/20 00:08:16;;;;;;;1.83;1.15;;;10.20;99.90;;;9.41;100.00;98946.72;5011808;28;20022;-78
2023/11/20 00:10:42;;;;;;;3.30;1.20;;;10.20;99.90;;;9.48;100.00;98952.81;5011561;28;20489;-78
2023/11/20 00:13:07;;;;;;;2.55;1.25;;;10.20;99.90;;;9.44;100.00;98950.84;5012301;28;20033;-78
2023/11/20 00:15:34;;;;;;;3.35;1.30;;;10.20;99.90;;;9.52;100.00;98955.84;5011950;28;20053;-77
2023/11/20 00:18:00;;;;;;;1.55;1.10;;;10.20;99.90;;;9.48;100.00;98954.69;5011881;28;20034;-78
2023/11/20 00:20:26;;;;;;;3.25;1.15;;;10.20;99.90;;;9.42;100.00;98948.38;5016373;28;20037;-78
2023/11/20 00:22:51;;;;;;;4.95;1.60;;;10.20;99.90;;;9.48;100.00;98963.72;5026384;28;20042;-78
2023/11/20 00:25:17;;;;;;;1.92;1.10;;;10.20;99.90;;;9.49;100.00;98959.91;5011796;28;20030;-78
2023/11/20 00:27:43;;;;;;;2.08;1.30;;;10.20;99.90;;;9.50;100.00;98956.13;5013341;28;20053;-78
2023/11/20 00:30:13;;;;;;;1.67;1.15;;;10.30;99.90;;;9.53;100.00;98949.31;5016241;28;20037;-79
2023/11/20 00:32:39;;;;;;;1.70;0.98;;;10.20;99.90;;;9.48;100.00;98932.94;5017646;28;20114;-78
2023/11/20 00:35:06;;;;;;;2.10;0.90;;;10.30;99.90;;;9.56;100.00;98953.44;5018008;28;20450;-78
2023/11/20 00:37:32;;;;;;;1.88;1.17;;;10.30;99.90;;;9.57;100.00;98945.06;5011594;28;20030;-79
2023/11/20 00:39:58;;;;;;;2.83;1.05;;;10.30;99.90;;;9.57;100.00;98957.81;5013520;28;20116;-78
2023/11/20 00:42:23;;;;;;;3.28;1.10;;;10.30;99.90;;;9.51;100.00;98935.13;5021476;28;20499;-79
2023/11/20 00:44:49;;;;;;;1.55;0.90;;;10.20;99.90;;;9.53;100.00;98930.25;5020887;28;20401;-79
2023/11/20 00:47:15;;;;;;;2.80;1.02;;;10.30;99.90;;;9.51;100.00;98932.41;5026865;28;20504;-79
2023/11/20 00:49:41;;;;;;;1.73;1.10;;;10.30;99.90;;;9.55;100.00;98928.16;5024434;28;20048;-78
2023/11/20 00:52:06;;;;;;;2.38;1.20;;;10.30;99.90;;;9.65;100.00;98941.03;5022617;28;20128;-79
2023/11/20 00:54:32;;;;;;;1.70;1.20;;;10.30;99.90;;;9.61;100.00;98940.75;5011602;28;20042;-79
2023/11/20 00:56:58;;;;;;;3.00;1.20;;;10.30;99.90;;;9.68;100.00;98939.72;5011926;28;20056;-79
2023/11/20 00:59:24;;;;;;;1.88;1.20;;;10.30;99.90;;;9.62;100.00;98936.09;5011999;28;20112;-79
2023/11/20 01:01:49;;;;;;;2.10;1.27;;;10.30;99.90;;;9.52;100.00;98936.78;5011630;28;20078;-79
2023/11/20 01:04:15;;;;;;;2.80;1.25;;;10.30;99.90;;;9.64;100.00;98947.56;5032912;28;20040;-78
2023/11/20 01:06:41;;;;;;;2.38;1.48;;;10.40;99.90;;;9.69;100.00;98935.94;5017960;28;20054;-77
2023/11/20 01:09:07;;;;;;;3.67;1.55;;;10.40;99.90;;;9.74;100.00;98938.69;5024082;28;20036;-77
2023/11/20 01:11:34;;;;;;;2.10;1.60;;;10.50;99.90;;;9.75;100.00;98941.19;5011111;28;20041;-77
2023/11/20 01:14:01;;;;;;;3.70;1.50;;;10.50;99.90;;;9.77;100.00;98941.75;5011453;28;20038;-77
2023/11/20 01:16:28;;;;;;;4.53;2.00;;;10.50;99.90;;;9.81;100.00;98952.94;4998982;28;20124;-78
2023/11/20 01:18:54;;;;;;;2.42;1.70;;;10.50;99.90;;;9.84;100.00;98948.91;5021699;28;20060;-77
2023/11/20 01:21:20;;;;;;;2.72;1.83;;;10.50;99.90;;;9.78;100.00;98943.41;5017126;28;20038;-78
2023/11/20 01:23:46;;;;;;;4.13;1.80;;;10.60;99.90;;;9.86;100.00;98954.94;5027437;28;20041;-77
2023/11/20 01:26:12;;;;;;;4.45;1.77;;;10.60;99.90;;;9.89;100.00;98957.97;5024438;28;20363;-77
2023/11/20 01:28:38;;;;;;;3.17;1.73;;;10.70;99.90;;;9.89;100.00;98971.59;5011664;28;20397;-76
2023/11/20 01:31:05;;;;;;;4.00;1.73;;;10.70;99.90;;;9.91;100.00;98979.50;5011214;28;20073;-77
2023/11/20 01:33:31;;;;;;;5.45;1.77;;;10.70;99.90;;;9.95;100.00;98982.53;5011389;28;20034;-77
2023/11/20 01:35:57;;;;;;;4.10;2.00;;;10.70;99.90;;;9.95;100.00;98993.44;5016365;28;20048;-77
2023/11/20 01:38:22;;;;;;;2.80;2.00;;;10.70;99.90;;;9.99;100.00;98997.31;5013347;28;20044;-77
2023/11/20 01:40:54;;;;;;;3.25;1.73;;;10.70;99.90;;;10.03;100.00;99014.78;5010862;28;20096;-77
2023/11/20 01:43:21;;;;;;;2.75;1.90;;;10.80;99.90;;;9.97;100.00;99007.63;5026294;28;20433;-77
2023/11/20 01:45:48;;;;;;;4.70;2.00;;;10.80;99.90;;;9.99;100.00;99022.66;5010922;28;20036;-77
2023/11/20 01:48:15;;;;;;;2.70;1.95;;;10.80;99.90;;;9.97;100.00;99018.53;5012137;28;20041;-77
2023/11/20 01:50:42;;;;;;;4.38;2.10;;;10.80;99.90;;;9.94;100.00;99014.41;5014332;28;20176;-77
2023/11/20 01:53:12;;;;;;;2.80;1.80;;;10.80;99.90;;;9.98;100.00;99020.19;5014071;28;20030;-77
2023/11/20 01:55:38;;;;;;;2.72;1.73;;;10.80;99.90;;;10.01;100.00;99016.94;5005008;28;20522;-77
2023/11/20 01:58:08;;;;;;;4.53;1.95;;;10.80;99.90;;;9.99;100.00;99014.50;5014272;28;20133;-77
2023/11/20 02:00:34;;;;;;;;;;;10.80;99.90;;;9.96;100.00;99008.72;5005663;28;20076;-77
2023/11/20 02:03:02;;;;;;;4.65;2.00;;;10.80;99.90;;;10.01;100.00;99023.22;5018607;28;19964;-77
2023/11/20 02:05:28;;;;;;;4.63;2.47;;;10.80;99.90;;;10.05;100.00;99020.81;5013804;28;20044;-77
2023/11/20 02:07:55;;;;;;;2.60;1.77;;;10.80;99.90;;;10.02;100.00;99034.94;5013385;28;20054;-77
2023/11/20 02:10:20;;;;;;;2.45;1.55;;;10.80;99.90;;;10.06;100.00;99022.44;5014715;28;20103;-77
2023/11/20 02:12:46;;;;;;;2.58;1.83;;;10.80;99.90;;;10.06;100.00;99041.53;5031358;28;20038;-77
2023/11/20 02:15:12;;;;;;;2.33;1.42;;;10.80;99.90;;;10.11;100.00;99057.13;5013841;28;20032;-78
2023/11/20 02:17:38;;;;;;;2.15;1.50;;;10.90;99.90;;;10.08;100.00;99053.03;5029035;28;20406;-77
2023/11/20 02:20:06;;;;;;;1.73;1.38;;;10.80;99.90;;;10.11;100.00;99066.13;5012888;28;20033;-76
2023/11/20 02:22:32;;;;;;;2.35;1.55;;;10.90;99.90;;;10.07;100.00;99070.41;5025455;28;20461;-77
2023/11/20 02:24:58;;;;;;;2.30;1.45;;;10.90;99.90;;;10.15;100.00;99089.06;5014201;28;20083;-76
2023/11/20 02:27:59;;;;;;;4.20;1.70;;;11.00;99.90;;;10.21;100.00;99101.69;5013053;28;20057;-76
2023/11/20 02:30:27;;;;;;;2.97;1.55;;;11.00;99.90;;;10.23;100.00;99125.97;5016845;28;20049;-77
2023/11/20 02:32:53;;;;;;;4.57;1.42;;;11.00;99.90;;;10.28;100.00;99141.56;5013263;28;20132;-77
2023/11/20 02:35:18;;;;;;;2.35;1.42;;;11.10;99.90;;;10.33;100.00;99164.25;5013187;28;20040;-76
2023/11/20 02:37:46;;;;;;;3.35;1.35;;;11.20;99.90;;;10.35;100.00;99194.81;5016598;28;20045;-76
2023/11/20 02:40:13;;;;;;;;;;;11.20;99.90;;;10.37;100.00;99202.75;5014100;28;22181;-77
2023/11/20 02:42:38;;;;;;;3.38;1.40;;;11.20;99.90;;;10.32;100.00;99210.84;5013845;28;19972;-76
2023/11/20 02:45:06;;;;;;;4.13;1.30;;;11.20;99.90;;;10.36;100.00;99242.00;5013202;28;20065;-77
2023/11/20 02:47:34;;;;;;;1.75;1.30;;;11.20;99.90;;;10.39;100.00;99263.31;5013271;28;20030;-76
2023/11/20 02:50:00;;;;;;;2.67;1.20;;;11.10;99.90;;;10.38;100.00;99272.56;5013320;28;20123;-76
2023/11/20 02:52:26;;;;;;;3.65;1.90;;;11.20;99.90;;;10.36;100.00;99285.63;5016042;28;20442;-78
2023/11/20 02:54:51;;;;;;;1.80;1.15;;;11.20;99.90;;;10.30;100.00;99283.88;5013262;28;20096;-77
2023/11/20 02:57:17;;;;;;;4.65;1.23;;;11.10;99.90;;;10.33;100.00;99291.53;5012889;28;20532;-78
2023/11/20 02:59:43;;;;;;;2.95;1.30;;;11.10;99.90;;;10.30;100.00;99283.88;5010578;28;20107;-77
2023/11/20 03:02:12;;;;;;;3.30;1.42;;;11.10;99.90;;;10.33;100.00;99283.38;5019390;28;20033;-77
2023/11/20 03:04:38;;;;;;;2.72;1.30;;;11.10;99.90;;;10.29;100.00;99274.03;5018086;28;20049;-78
2023/11/20 03:07:04;;;;;;;3.38;1.30;;;11.10;99.90;;;10.29;100.00;99283.06;5015784;28;20030;-79
2023/11/20 03:09:30;;;;;;;9.95;2.03;;;11.10;99.90;;;10.28;100.00;99283.28;5014808;28;20046;-77
2023/11/20 03:11:56;;;;;;;2.83;1.38;;;11.10;99.90;;;10.22;100.00;99264.13;5012860;28;20036;-77
2023/11/20 03:14:21;;;;;;;4.25;1.40;;;11.10;99.90;;;10.20;100.00;99260.84;5012640;28;20089;-76
2023/11/20 03:16:47;;;;;;;2.20;1.58;;;11.00;99.90;;;10.20;100.00;99249.09;5013175;28;20038;-77
2023/11/20 03:19:14;;;;;;;2.92;1.80;;;11.00;99.90;;;10.11;100.00;99220.63;5012562;28;20025;-77
2023/11/20 03:21:40;;;;;;;3.47;1.67;;;11.00;99.90;;;10.14;100.00;99229.13;4995112;28;20042;-77
2023/11/20 03:24:07;;;;;;;3.42;1.73;;;10.90;99.90;;;10.13;100.00;99202.13;5012349;28;20120;-77
2023/11/20 03:26:33;;;;;;;3.05;1.55;;;10.90;99.90;;;10.06;100.00;99196.84;5012480;28;20034;-77
2023/11/20 03:28:59;;;;;;;2.88;1.60;;;10.90;99.90;;;10.09;100.00;99177.28;5012252;28;20045;-77
2023/11/20 03:31:24;;;;;;;2.63;1.70;;;10.90;99.90;;;10.13;100.00;99185.78;5027880;28;20040;-77
2023/11/20 03:33:50;;;;;;;4.03;1.70;;;10.90;99.90;;;10.11;100.00;99188.75;5027642;28;20060;-77
2023/11/20 03:36:25;;;;;;;4.53;1.73;;;10.90;99.90;;;10.11;100.00;99172.41;5011412;28;20038;-78
2023/11/20 03:38:51;;;;;;;3.45;1.60;;;10.90;99.90;;;10.15;100.00;99179.00;5024039;28;20029;-78
2023/11/20 03:41:17;;;;;;;3.78;1.65;;;10.90;99.90;;;10.10;100.00;99169.91;5016209;28;20061;-77
2023/11/20 03:43:42;;;;;;;2.53;1.42;;;10.90;99.90;;;10.14;100.00;99185.53;5016853;28;20524;-77
2023/11/20 03:46:08;;;;;;;3.10;1.60;;;10.90;99.90;;;10.07;100.00;99172.06;5011638;28;20048;-76
2023/11/20 03:48:34;;;;;;;4.78;1.40;;;10.90;99.90;;;10.06;100.00;99164.13;5018963;28;20034;-76
2023/11/20 03:51:01;;;;;;;3.20;1.40;;;10.90;99.90;;;10.04;100.00;99149.94;5012217;28;20042;-77
2023/11/20 03:53:26;;;;;;;3.23;1.60;;;10.90;99.90;;;10.07;100.00;99136.66;5027466;28;20037;-77
2023/11/20 03:55:52;;;;;;;2.60;1.50;;;10.80;99.90;;;10.09;100.00;99133.69;5017637;28;20148;-77
2023/11/20 03:58:18;;;;;;;2.05;1.30;;;10.80;99.90;;;10.10;100.00;99142.69;5026477;28;20030;-77
2023/11/20 04:00:44;;;;;;;2.10;1.20;;;10.80;99.90;;;10.11;100.00;99134.25;5010578;28;20112;-78
2023/11/20 04:03:09;;;;;;;3.28;1.45;;;10.90;99.90;;;10.07;100.00;99130.38;5026718;28;20022;-78
2023/11/20 04:05:37;;;;;;;1.92;1.08;;;10.80;99.90;;;10.07;100.00;99131.19;5011120;28;20849;-78
2023/11/20 04:08:03;;;;;;;2.60;1.08;;;10.80;99.90;;;10.14;100.00;99138.38;5010771;28;20044;-78
2023/11/20 04:10:28;;;;;;;2.30;1.30;;;10.80;99.90;;;10.06;100.00;99124.09;5011645;28;20034;-78
2023/11/20 04:12:54;;;;;;;1.85;1.20;;;10.80;99.90;;;10.03;100.00;99118.31;5010480;28;20034;-78
2023/11/20 04:15:20;;;;;;;1.88;1.23;;;10.80;99.90;;;10.02;100.00;99128.41;5001025;28;20038;-77
2023/11/20 04:17:46;;;;;;;1.70;1.23;;;10.80;99.90;;;9.98;100.00;99115.53;5026892;28;20073;-76
2023/11/20 04:20:12;;;;;;;3.08;1.50;;;10.80;99.90;;;10.01;100.00;99107.69;5011874;28;20084;-77
2023/11/20 04:22:38;;;;;;;4.38;1.40;;;10.80;99.90;;;10.04;100.00;99119.97;5010734;28;20426;-77
2023/11/20 04:25:05;;;;;;;3.10;1.40;;;10.80;99.90;;;10.03;100.00;99104.69;5017823;28;20026;-78
2023/11/20 04:27:31;;;;;;;4.15;1.50;;;10.80;99.90;;;10.06;100.00;99118.66;5011796;28;20525;-77
2023/11/20 04:29:57;;;;;;;2.42;1.40;;;10.80;99.90;;;10.06;100.00;99115.09;5011644;28;20030;-77
2023/11/20 04:32:23;;;;;;;3.83;1.70;;;10.80;99.90;;;10.09;100.00;99122.78;5011473;28;20564;-78
2023/11/20 04:34:48;;;;;;;2.17;1.30;;;10.80;99.90;;;10.11;100.00;99127.97;5011592;28;20469;-78
2023/11/20 04:37:14;;;;;;;3.53;1.60;;;10.80;99.90;;;10.10;100.00;99134.50;5011280;28;20050;-78
2023/11/20 04:39:40;;;;;;;2.95;1.60;;;10.80;99.90;;;10.09;100.00;99141.88;5017859;28;20041;-78
2023/11/20 04:42:06;;;;;;;2.47;1.55;;;10.80;99.90;;;10.08;100.00;99134.75;5017062;28;20060;-77
2023/11/20 04:44:32;;;;;;;2.95;1.48;;;10.80;99.90;;;10.04;100.00;99134.44;5011326;28;20053;-77
2023/11/20 04:46:57;;;;;;;3.78;1.40;;;10.80;99.90;;;10.02;100.00;99125.69;5010936;28;20037;-78
2023/11/20 04:49:23;;;;;;;3.03;1.40;;;10.80;99.90;;;10.04;100.00;99134.44;5011648;28;20405;-78
2023/11/20 04:51:49;;;;;;;4.10;1.48;;;10.80;99.90;;;10.15;100.00;99170.84;5011104;28;20053;-78
2023/11/20 04:54:14;;;;;;;2.80;1.50;;;10.80;99.90;;;10.11;100.00;99169.69;5011345;28;20038;-77
2023/11/20 04:56:40;;;;;;;3.70;1.40;;;10.90;99.90;;;10.17;100.00;99178.75;5010786;28;20076;-78
2023/11/20 04:59:06;;;;;;;2.28;1.40;;;10.90;99.90;;;10.15;100.00;99192.63;5011830;28;20061;-77
2023/11/20 05:01:32;;;;;;;1.90;1.10;;;10.90;99.90;;;10.13;100.00;99202.97;5010767;28;20065;-78
2023/11/20 05:03:59;;;;;;;3.40;1.20;;;10.90;99.90;;;10.16;100.00;99207.91;5012268;28;20049;-79
2023/11/20 05:06:25;;;;;;;1.70;1.15;;;10.90;99.90;;;10.20;100.00;99239.03;5009841;28;20049;-78
2023/11/20 05:08:50;;;;;;;4.15;1.40;;;10.90;99.90;;;10.24;100.00;99253.00;5011443;28;20041;-77
2023/11/20 05:11:16;;;;;;;2.47;1.38;;;11.00;99.90;;;10.24;100.00;99282.16;5018124;28;20100;-77
2023/11/20 05:13:43;;;;;;;1.45;1.10;;;10.90;99.90;;;10.19;100.00;99281.00;5010809;28;20100;-76
2023/11/20 05:16:08;;;;;;;3.63;1.40;;;10.90;99.90;;;10.14;100.00;99290.97;5018060;28;20076;-77
2023/11/20 05:18:35;;;;;;;3.53;1.73;;;10.90;99.90;;;10.06;100.00;99254.06;5011652;28;20069;-81
2023/11/20 05:21:01;;;;;;;3.40;1.60;;;10.80;99.90;;;9.97;100.00;99241.94;5011791;28;20034;-83
2023/11/20 05:23:26;;;;;;;2.20;1.50;;;10.80;99.90;;;10.03;100.00;99235.47;5010866;28;20816;-77
2023/11/20 05:25:54;;;;;;;3.63;1.50;;;10.80;99.90;;;10.04;100.00;99215.34;5017950;28;20034;-77
2023/11/20 05:28:20;;;;;;;;;;;10.80;99.90;;;9.98;100.00;99216.34;5024567;28;20066;-77
2023/11/20 05:30:46;;;;;;;3.15;1.42;;;10.80;99.90;;;10.02;100.00;99215.59;5014799;28;19956;-78
2023/11/20 05:33:12;;;;;;;2.50;1.40;;;10.80;99.90;;;10.00;100.00;99206.84;5017240;28;20532;-78
2023/11/20 05:35:39;;;;;;;4.15;1.63;;;10.80;99.90;;;10.01;100.00;99196.75;5019788;28;20080;-79
2023/11/20 05:38:05;;;;;;;3.42;1.70;;;10.70;99.90;;;10.01;100.00;99192.16;5018154;28;20042;-78
2023/11/20 05:40:33;;;;;;;4.03;1.90;;;10.80;99.90;;;10.02;100.00;99222.94;5013536;28;20038;-78
2023/11/20 05:42:59;;;;;;;5.00;2.35;;;10.80;99.90;;;10.02;100.00;99215.59;5013343;28;20034;-77
2023/11/20 05:45:24;;;;;;;3.60;1.80;;;10.80;99.90;;;10.05;100.00;99226.00;5015280;28;20425;-78
2023/11/20 05:47:50;;;;;;;2.63;1.50;;;10.80;99.90;;;10.09;100.00;99245.41;5020650;28;20038;-77
2023/11/20 05:50:16;;;;;;;2.97;1.70;;;10.80;99.90;;;10.06;100.00;99243.16;5014594;28;20041;-77
2023/11/20 05:52:41;;;;;;;7.18;1.80;;;10.80;99.90;;;10.08;100.00;99260.09;5014750;28;20042;-78
2023/11/20 05:55:07;;;;;;;4.28;1.60;;;10.80;99.90;;;10.08;100.00;99266.38;5014650;28;20050;-78
2023/11/20 05:57:34;;;;;;;3.25;1.65;;;10.80;99.90;;;10.08;100.00;99281.91;5014399;28;20026;-77
2023/11/20 06:00:00;;;;;;;3.63;1.73;;;10.80;99.90;;;10.08;100.00;99282.72;5015748;28;20046;-77
2023/11/20 06:02:26;;;;;;;3.55;1.75;;;10.80;99.90;;;10.07;100.00;99302.03;5016756;28;20037;-78
2023/11/20 06:04:52;;;;;;;4.35;1.70;;;10.80;99.90;;;10.06;100.00;99297.66;5015569;28;20046;-78
2023/11/20 06:07:18;;;;;;;2.85;1.70;;;10.80;99.90;;;9.99;100.00;99288.81;5014522;28;20108;-78
2023/11/20 06:09:43;;;;;;;4.13;1.73;;;10.80;99.90;;;9.95;100.00;99285.78;5013813;28;20042;-77
2023/11/20 06:12:09;;;;;;;3.65;1.60;;;10.70;99.90;;;9.90;100.00;99267.44;5019031;28;20042;-78
2023/11/20 06:14:35;;;;;;;3.63;1.45;;;10.70;99.90;;;9.86;100.00;99247.22;5014087;28;20064;-78
2023/11/20 06:17:00;;;;;;;2.85;1.75;;;10.70;99.90;;;9.81;100.00;99228.03;5013174;28;20046;-77
2023/11/20 06:19:27;;;;;;;3.53;1.58;;;10.60;99.90;;;9.86;100.00;99219.13;5013993;28;20041;-78
2023/11/20 06:21:54;;;;;;;4.50;1.80;;;10.60;99.90;;;9.84;100.00;99218.56;5014668;28;20046;-77
2023/11/20 06:24:21;;;;;;;3.50;1.58;;;10.60;99.90;;;9.84;100.00;99203.06;5014063;28;20165;-78
2023/11/20 06:26:47;;;;;;;6.22;1.80;;;10.60;99.90;;;9.84;100.00;99204.94;5027905;28;20065;-79
2023/11/20 06:29:13;;;;;;;5.72;1.60;;;10.60;99.90;;;9.83;100.00;99195.97;5022831;28;21848;-78
2023/11/20 06:31:39;;;;;;;4.97;2.20;;;10.60;99.90;;;9.81;100.00;99192.63;5028439;28;20141;-78
2023/11/20 06:34:05;;;;;;;3.45;1.70;;;10.60;99.90;;;9.76;100.00;99184.38;5016555;28;20041;-77
2023/11/20 06:36:31;;;;;;;5.70;1.90;;;10.60;99.90;;;9.81;100.00;99178.19;5013563;28;20473;-76
2023/11/20 06:39:00;;;;;;;5.00;1.63;;;10.60;99.90;;;9.78;100.00;99174.91;5017154;28;20025;-76
2023/11/20 06:41:28;;;;;;;5.72;1.80;;;10.60;99.90;;;9.83;100.00;99179.63;5014104;28;20033;-77
2023/11/20 06:43:54;;;;;;;6.63;2.33;;;10.60;99.90;;;9.82;100.00;99188.03;5013333;28;20058;-78
2023/11/20 06:46:21;;;;;;;3.70;2.17;;;10.60;99.90;;;9.75;100.00;99174.56;5013396;28;20062;-78
2023/11/20 06:48:48;;;;;;;4.40;2.20;;;10.60;99.90;;;9.73;100.00;99160.38;5012315;28;20127;-78
2023/11/20 06:51:15;;;;;;;8.82;2.45;;;10.50;99.90;;;9.75;100.00;99164.50;5013644;28;20113;-77
2023/11/20 06:53:43;;;;;;;4.75;2.67;;;10.50;99.90;;;9.72;100.00;99167.72;5013183;28;20144;-77
2023/11/20 06:56:17;;;;;;;8.25;2.80;;;10.60;99.90;;;9.79;100.00;99175.72;5012942;28;20050;-77
2023/11/20 06:58:42;;;;;;;6.97;2.45;;;10.50;99.90;;;9.76;100.00;99184.38;5013383;28;20466;-77
2023/11/20 07:01:08;;;;;;;4.72;2.20;;;10.50;99.90;;;9.76;100.00;99176.22;5015755;28;20128;-77
2023/11/20 07:03:34;;;;;;;7.00;2.38;;;10.50;99.90;;;9.68;100.00;99173.91;5013144;28;20560;-77
2023/11/20 07:05:59;;;;;;;7.63;2.40;;;10.50;99.90;;;9.61;100.00;99141.38;5013239;28;20049;-77
2023/11/20 07:08:27;;;;;;;5.80;2.38;;;10.50;99.90;;;9.64;100.00;99136.28;5013397;28;20038;-78
2023/11/20 07:10:53;;;;;;;6.05;2.45;;;10.50;99.90;;;9.59;100.00;99111.69;5012416;28;20041;-76
2023/11/20 07:13:19;;;;;;;7.63;2.33;;;10.50;99.90;;;9.72;100.00;99126.03;5012612;28;20371;-77
2023/11/20 07:15:45;;;;;;;6.90;2.95;;;10.50;99.90;;;9.72;100.00;99121.44;5012696;28;20049;-77
2023/11/20 07:18:11;;;;;;;5.15;2.22;;;10.50;99.90;;;9.61;100.00;99114.16;5012846;28;20049;-78
2023/11/20 07:20:37;;;;;;;6.30;2.42;;;10.40;99.90;;;9.64;100.00;99109.06;5012878;28;20100;-77
2023/11/20 07:23:04;;;;;;;3.97;2.33;;;10.40;99.90;;;9.68;100.00;99122.16;5012673;28;20045;-78
2023/11/20 07:25:35;;;;;;;5.40;2.40;;;10.40;99.90;;;9.66;100.00;99121.59;5024059;28;20041;-78
2023/11/20 07:28:02;;;;;;;6.47;2.55;;;10.40;99.90;;;9.63;100.00;99121.00;5027812;28;20318;-78
2023/11/20 07:30:32;;;;;;;5.40;2.65;;;10.40;99.90;;;9.69;100.00;99121.09;5012592;28;20433;-77
2023/11/20 07:32:58;;;;;;;5.47;2.50;;;10.40;99.90;;;9.69;100.00;99121.09;5013177;28;20050;-78
2023/11/20 07:35:24;;;;;;;9.32;2.33;;;10.50;99.90;;;9.71;100.00;99138.00;5012521;28;20041;-78
2023/11/20 07:37:50;;;;;;;6.18;2.42;;;10.50;99.90;;;9.66;100.00;99129.75;5012562;28;20037;-77
2023/11/20 07:40:18;;;;;;;6.55;2.60;;;10.50;99.90;;;9.59;100.00;99114.41;5012557;28;20104;-77
2023/11/20 07:42:45;;;;;;;5.55;2.50;;;10.50;99.90;;;9.63;100.00;99134.63;5012699;28;20100;-77
2023/11/20 07:45:12;;;;;;;5.65;2.33;;;10.50;99.90;;;9.63;100.00;99128.34;5012223;28;20400;-77
2023/11/20 07:47:39;;;;;;;5.20;2.72;;;10.50;99.90;;;9.71;100.00;99133.41;5012083;28;20042;-78
2023/11/20 07:50:06;;;;;;;5.95;2.60;;;10.50;99.90;;;9.72;100.00;99145.09;5012367;28;20539;-76
2023/11/20 07:52:33;;;;;;;7.47;2.38;;;10.50;99.90;;;9.72;100.00;99142.38;5012677;28;20113;-77
2023/11/20 07:54:59;;;;;;;6.77;2.30;;;10.50;99.90;;;9.74;100.00;99153.84;5011716;28;20060;-78
2023/11/20 07:57:25;;;;;;;6.70;2.47;;;10.50;99.90;;;9.70;100.00;99149.97;5011987;28;20049;-77
2023/11/20 07:59:52;;;;;;;4.90;2.25;;;10.50;99.90;;;9.74;100.00;99157.41;5011664;28;20140;-77
2023/11/20 08:02:19;;;;;;;5.95;2.10;;;10.50;99.90;;;9.72;100.00;99158.72;5023157;28;20038;-77
2023/11/20 08:04:46;;;;;;;6.22;2.83;;;10.50;99.90;;;9.75;100.00;99163.66;5011758;28;20042;-77
2023/11/20 08:07:16;;;;;;;5.28;2.30;;;10.50;99.90;;;9.76;100.00;99170.75;5010862;28;20065;-78
2023/11/20 08:09:42;;;;;;;6.25;2.05;;;10.50;99.90;;;9.72;100.00;99175.06;5011682;28;20038;-78
2023/11/20 08:12:08;;;;;;;6.43;2.20;;;10.50;99.90;;;9.72;100.00;99177.78;5024744;28;20417;-77
2023/11/20 08:14:35;;;;;;;5.85;2.03;;;10.50;99.90;;;9.71;100.00;99179.69;5011405;28;20034;-78
2023/11/20 08:17:00;;;;;;;6.00;2.20;;;10.50;99.90;;;9.80;100.00;99180.09;5011688;28;20046;-78
2023/11/20 08:19:28;;;;;;;7.15;2.30;;;10.60;99.90;;;9.85;100.00;99195.69;5011804;28;20036;-78
2023/11/20 08:21:54;;;;;;;3.83;1.95;;;10.60;99.90;;;9.84;100.00;99194.88;5012220;28;20132;-78
2023/11/20 08:24:20;;;;;;;4.68;1.80;;;10.60;99.90;;;9.82;100.00;99202.47;5014118;28;20112;-78
2023/11/20 08:26:46;;;;;;;6.50;1.75;;;10.60;99.90;;;9.81;100.00;99206.25;5025582;28;20037;-77
2023/11/20 08:29:16;;;;;;;5.07;1.80;;;10.60;99.90;;;9.85;100.00;99210.16;5011425;28;20080;-79
2023/11/20 08:31:43;;;;;;;4.13;1.80;;;10.60;99.90;;;9.79;100.00;99222.84;5011545;28;20449;-77
2023/11/20 08:34:09;;;;;;;5.78;1.60;;;10.60;99.90;;;9.86;100.00;99203.63;5011409;28;20481;-77
2023/11/20 08:36:35;;;;;;;5.30;1.67;;;10.60;99.90;;;9.83;100.00;99212.31;5010518;28;20125;-78
2023/11/20 08:39:05;;;;;;;6.72;1.70;;;10.70;99.90;;;9.89;100.00;99205.84;5011363;28;20085;-78
2023/11/20 08:41:31;;;;;;;3.90;1.60;;;10.70;99.90;;;9.85;100.00;99201.13;5011050;28;20167;-77
2023/11/20 08:43:59;;;;;;;6.28;1.63;;;10.70;99.90;;;9.85;100.00;99203.88;5011718;28;20038;-77
2023/11/20 08:46:25;;;;;;;3.47;1.55;;;10.70;99.90;;;9.85;100.00;99191.09;5015591;28;20140;-78
2023/11/20 08:48:51;;;;;;;3.75;1.70;;;10.60;99.90;;;9.85;100.00;99182.06;5011624;28;20157;-77
2023/11/20 08:51:17;;;;;;;6.13;1.90;;;10.60;99.90;;;9.84;100.00;99204.94;5011637;28;20508;-77
2023/11/20 08:53:42;;;;;;;4.43;1.90;;;10.60;99.90;;;9.85;100.00;99180.19;5011249;28;20033;-77
2023/11/20 08:56:10;;;;;;;4.18;1.63;;;10.70;99.90;;;9.87;100.00;99183.50;4998572;28;20401;-77
2023/11/20 08:58:37;;;;;;;4.47;2.05;;;10.70;99.90;;;9.81;100.00;99179.00;5016220;28;20551;-77
2023/11/20 09:01:03;;;;;;;5.18;2.00;;;10.70;99.90;;;9.83;100.00;99171.44;5015014;28;20061;-77
2023/11/20 09:03:29;;;;;;;4.22;1.77;;;10.60;99.90;;;9.82;100.00;99177.97;5024975;28;20053;-77
2023/11/20 09:05:54;;;;;;;4.95;1.98;;;10.60;99.90;;;9.74;100.00;99181.06;5014978;28;20037;-77
2023/11/20 09:08:20;;;;;;;5.45;2.33;;;10.50;99.90;;;9.71;100.00;99190.59;5015263;28;20029;-78
2023/11/20 09:10:46;;;;;;;4.38;2.10;;;10.50;99.90;;;9.64;100.00;99173.56;5015801;28;20053;-78
2023/11/20 09:13:12;;;;;;;4.15;2.40;;;10.50;99.90;;;9.55;100.00;99156.84;5014848;28;20049;-78
2023/11/20 09:15:38;;;;;;;8.45;2.90;;;10.40;99.90;;;9.66;100.00;99168.69;5025826;28;20137;-78
2023/11/20 09:18:04;;;;;;;8.10;2.38;;;10.40;99.90;;;9.60;100.00;99167.81;5015440;28;20029;-77
2023/11/20 09:20:31;;;;;;;6.05;2.45;;;10.40;99.90;;;9.58;100.00;99175.41;5021449;28;20092;-78
2023/11/20 09:22:56;;;;;;;5.75;2.40;;;10.40;99.90;;;9.62;100.00;99164.81;5014880;28;20493;-78
2023/11/20 09:25:22;;;;;;;6.88;2.50;;;10.40;99.90;;;9.62;100.00;99176.53;5008387;28;20037;-78
2023/11/20 09:27:48;;;;;;;9.70;2.65;;;10.40;99.90;;;9.60;100.00;99167.81;5015756;28;20037;-78
2023/11/20 09:30:14;;;;;;;7.90;2.33;;;10.40;99.90;;;9.68;100.00;99190.25;5013975;28;20125;-78
2023/11/20 09:32:40;;;;;;;5.93;2.60;;;10.40;99.90;;;9.68;100.00;99201.97;5014989;28;20108;-79
2023/11/20 09:35:10;;;;;;;5.68;2.55;;;10.40;99.90;;;9.70;100.00;99215.31;5018333;28;20470;-79
2023/11/20 09:37:37;;;;;;;6.72;2.78;;;10.40;99.90;;;9.69;100.00;99227.28;5029332;28;20041;-79
2023/11/20 09:40:06;;;;;;;8.07;3.15;;;10.40;99.90;;;9.69;100.00;99239.03;5030853;28;20056;-78
2023/11/20 09:42:34;;;;;;;7.53;2.90;;;10.40;99.90;;;9.70;100.00;99259.75;5023253;28;20032;-77
2023/11/20 09:45:01;;;;;;;7.40;3.22;;;10.40;99.90;;;9.79;100.00;99279.22;5015338;28;20025;-78
2023/11/20 09:47:29;;;;;;;6.05;2.95;;;10.50;99.90;;;9.86;100.00;99300.84;5027882;28;20084;-77
2023/11/20 09:49:56;;;;;;;7.15;2.95;;;10.60;99.90;;;9.84;100.00;99297.56;5029314;28;20060;-80
2023/11/20 09:52:25;;;;;;;10.07;3.30;;;10.60;99.90;;;9.93;100.00;99326.88;5018796;28;20136;-78
2023/11/20 09:54:57;;;;;;;10.18;3.53;;;10.70;99.90;;;9.95;100.00;99356.63;5027084;28;20045;-77
2023/11/20 09:57:26;;;;;;;13.43;3.70;;;10.70;99.90;;;10.00;100.00;99375.78;5027346;28;20033;-77
2023/11/20 09:59:53;;;;;;;9.73;3.22;;;10.80;99.90;;;10.06;100.00;99418.38;5029431;28;20045;-77
2023/11/20 10:02:25;;;;;;;8.32;2.90;;;10.90;99.90;;;10.17;100.00;99451.28;5028565;28;20441;-76
2023/11/20 10:04:54;;;;;;;12.60;3.33;;;10.90;99.90;;;10.21;100.00;99464.19;5027949;28;20654;-78
2023/11/20 10:07:31;;;;;;;12.10;3.55;;;11.00;99.90;;;10.35;100.00;99507.50;5018726;28;20069;-77
2023/11/20 10:09:57;;;;;;;8.07;2.90;;;11.10;99.90;;;10.32;100.00;99538.81;5008939;28;20034;-76
2023/11/20 10:12:27;;;;;;;9.55;3.42;;;11.10;99.90;;;10.40;100.00;99562.16;5019912;28;20033;-76
2023/11/20 10:14:53;;;;;;;9.00;2.92;;;11.10;99.90;;;10.52;100.00;99581.22;5020613;28;20137;-77